Time;durP1;ratioP1;P1;durP2;ratioP2;P2;SDS_P1;SDS_P2;PMS_P1;PMS_P2;Temp;Humidity;BMP_temperature;BMP_pressure;BME280_temperature;BME280_humidity;BME280_pressure;Samples;Min_cycle;Max_cycle;Signal;HPM_P1;HPM_P2
2023/07/19 00:01:57;;;;;;;;;;;;;;;13.44;64.88;101100.58;108522;1280;73548;-84
2023/07/19 00:04:24;;;;;;;;;;;;;;;13.44;64.98;101098.14;108218;1264;125281;-84
2023/07/19 00:06:51;;;;;;;;;;;;;;;13.45;65.02;101093.74;108315;1267;60105;-84
2023/07/19 00:09:18;;;;;;;;;;;;;;;13.46;64.91;101089.89;108206;1263;124175;-84
2023/07/19 00:11:47;;;;;;;;;;;;;;;13.47;65.02;101088.66;108245;1263;65571;-83
2023/07/19 00:14:17;;;;;;;;;;;;;;;13.46;64.97;101081.95;108075;1264;71821;-84
2023/07/19 00:16:44;;;;;;;;;;;;;;;13.46;64.99;101080.34;108188;1264;125707;-84
2023/07/19 00:19:11;;;;;;;;;;;;;;;13.46;65.15;101082.46;108290;1270;59446;-84
2023/07/19 00:21:38;;;;;;;;;;;;;;;13.46;65.05;101077.17;108331;1264;125294;-84
2023/07/19 00:24:05;;;;;;;;;;;;;;;13.46;65.10;101073.30;108467;1263;65639;-84
2023/07/19 00:26:32;;;;;;;;;;;;;;;13.45;65.18;101066.94;108288;1263;72998;-83
2023/07/19 00:28:59;;;;;;;;;;;;;;;13.45;65.11;101064.65;108184;1265;125050;-83
2023/07/19 00:31:26;;;;;;;;;;;;;;;13.45;65.15;101060.23;108400;1266;59632;-83
2023/07/19 00:33:53;;;;;;;;;;;;;;;13.44;65.19;101058.80;108195;1263;125214;-83
2023/07/19 00:36:20;;;;;;;;;;;;;;;13.42;65.06;101057.38;108260;1263;67435;-83
2023/07/19 00:38:46;;;;;;;;;;;;;;;13.40;65.20;101053.63;108406;1264;72669;-83
2023/07/19 00:41:14;;;;;;;;;;;;;;;13.37;65.21;101051.99;108292;1263;125391;-83
2023/07/19 00:43:41;;;;;;;;;;;;;;;13.34;65.20;101054.92;108258;1264;59434;-83
2023/07/19 00:46:08;;;;;;;;;;;;;;;13.32;65.27;101051.55;108301;1263;124333;-83
2023/07/19 00:48:38;;;;;;;;;;;;;;;13.29;65.26;101050.40;108343;1263;66697;-85
2023/07/19 00:51:05;;;;;;;;;;;;;;;13.26;65.30;101046.46;108191;1269;124469;-83
2023/07/19 00:53:32;;;;;;;;;;;;;;;13.24;65.42;101039.56;108333;1265;59532;-83
2023/07/19 00:55:59;;;;;;;;;;;;;;;13.23;65.55;101040.23;108441;1264;60022;-83
2023/07/19 00:58:26;;;;;;;;;;;;;;;13.21;65.57;101037.38;108180;1269;124961;-83
2023/07/19 01:00:53;;;;;;;;;;;;;;;13.20;65.58;101035.78;108382;1264;65994;-83
2023/07/19 01:03:20;;;;;;;;;;;;;;;13.19;65.62;101031.20;108150;1263;124546;-83
2023/07/19 01:05:48;;;;;;;;;;;;;;;13.20;65.77;101024.88;108268;1263;59415;-83
2023/07/19 01:08:17;;;;;;;;;;;;;;;13.24;65.99;101023.17;108258;1264;60436;-83
2023/07/19 01:10:46;;;;;;;;;;;;;;;13.29;66.07;101020.79;108070;1270;126489;-83
2023/07/19 01:13:13;;;;;;;;;;;;;;;13.34;66.10;101017.92;108217;1263;66190;-83
2023/07/19 01:15:40;;;;;;;;;;;;;;;13.38;66.17;101015.52;108177;1264;124945;-83
2023/07/19 01:18:07;;;;;;;;;;;;;;;13.40;66.04;101007.63;108271;1264;59989;-83
2023/07/19 01:20:34;;;;;;;;;;;;;;;13.41;66.07;101006.77;108360;1263;60024;-83
2023/07/19 01:23:02;;;;;;;;;;;;;;;13.42;65.99;101004.13;108190;1267;124448;-83
2023/07/19 01:25:29;;;;;;;;;;;;;;;13.44;66.01;101003.98;108318;1263;66865;-83
2023/07/19 01:27:56;;;;;;;;;;;;;;;13.45;66.04;101002.95;108137;1264;125853;-84
2023/07/19 01:30:23;;;;;;;;;;;;;;;13.47;65.95;100999.45;108141;1269;60511;-83
2023/07/19 01:32:50;;;;;;;;;;;;;;;13.50;65.91;100998.10;108361;1264;59457;-83
2023/07/19 01:35:17;;;;;;;;;;;;;;;13.54;65.95;100996.07;108246;1264;124245;-83
2023/07/19 01:37:44;;;;;;;;;;;;;;;13.60;65.93;100995.27;108403;1263;65694;-83
2023/07/19 01:40:11;;;;;;;;;;;;;;;13.66;65.90;100995.20;108306;1267;124879;-83
2023/07/19 01:42:39;;;;;;;;;;;;;;;13.72;65.89;100994.23;108432;1264;59454;-83
2023/07/19 01:45:06;;;;;;;;;;;;;;;13.76;65.85;100989.19;108150;1267;125180;-83
2023/07/19 01:47:34;;;;;;;;;;;;;;;13.80;65.68;100989.44;108387;1264;74848;-83
2023/07/19 01:50:01;;;;;;;;;;;;;;;13.84;65.78;100983.13;108299;1263;65660;-83
2023/07/19 01:52:28;;;;;;;;;;;;;;;13.87;65.69;100981.41;108383;1263;124752;-83
2023/07/19 01:54:56;;;;;;;;;;;;;;;13.91;65.72;100978.48;108432;1264;59332;-84
2023/07/19 01:57:26;;;;;;;;;;;;;;;13.95;65.75;100981.36;108307;1262;125940;-83
2023/07/19 01:59:52;;;;;;;;;;;;;;;13.99;65.71;100983.53;108157;1263;76139;-83
2023/07/19 02:02:19;;;;;;;;;;;;;;;14.03;65.78;100982.90;108459;1263;65693;-83
2023/07/19 02:04:46;;;;;;;;;;;;;;;14.05;65.69;100981.52;108358;1261;124875;-83
2023/07/19 02:07:13;;;;;;;;;;;;;;;14.06;65.64;100978.35;108328;1263;59378;-83
2023/07/19 02:09:43;;;;;;;;;;;;;;;14.07;65.76;100982.23;108344;1263;124895;-83
2023/07/19 02:12:10;;;;;;;;;;;;;;;14.09;65.71;100975.55;108362;1264;74234;-83
2023/07/19 02:14:37;;;;;;;;;;;;;;;14.11;65.75;100976.28;108217;1263;67603;-83
2023/07/19 02:17:07;;;;;;;;;;;;;;;14.14;65.71;100972.29;108100;1265;125607;-83
2023/07/19 02:19:34;;;;;;;;;;;;;;;14.18;65.71;100972.16;108339;1264;59469;-83
2023/07/19 02:22:01;;;;;;;;;;;;;;;14.23;65.78;100970.29;108353;1262;124252;-83
2023/07/19 02:24:28;;;;;;;;;;;;;;;14.28;65.66;100966.64;108372;1264;75129;-83
2023/07/19 02:26:55;;;;;;;;;;;;;;;14.33;65.74;100968.83;108392;1263;126096;-83
2023/07/19 02:29:22;;;;;;;;;;;;;;;14.36;65.73;100970.98;108326;1267;71440;-83
2023/07/19 02:31:51;;;;;;;;;;;;;;;14.40;65.76;100971.03;108289;1270;59581;-83
2023/07/19 02:34:22;;;;;;;;;;;;;;;14.45;65.75;100970.04;108298;1264;124795;-83
2023/07/19 02:36:49;;;;;;;;;;;;;;;14.49;65.63;100966.02;108369;1262;74047;-83
2023/07/19 02:39:16;;;;;;;;;;;;;;;14.53;65.82;100964.15;108118;1270;125559;-83
2023/07/19 02:41:43;;;;;;;;;;;;;;;14.57;65.57;100961.39;108149;1262;72154;-83
2023/07/19 02:44:10;;;;;;;;;;;;;;;14.62;65.65;100958.27;108200;1277;59550;-83
2023/07/19 02:46:37;;;;;;;;;;;;;;;14.67;65.66;100956.73;108170;1263;125289;-83
2023/07/19 02:49:04;;;;;;;;;;;;;;;14.71;65.69;100953.61;108299;1268;73760;-83
2023/07/19 02:51:31;;;;;;;;;;;;;;;14.76;65.72;100948.91;108217;1263;124721;-83
2023/07/19 02:53:58;;;;;;;;;;;;;;;14.81;65.69;100947.17;108379;1264;72124;-84
2023/07/19 02:56:25;;;;;;;;;;;;;;;14.84;65.65;100950.91;108406;1267;59109;-83
2023/07/19 02:58:52;;;;;;;;;;;;;;;14.87;65.53;100945.30;108218;1263;125524;-83
2023/07/19 03:01:19;;;;;;;;;;;;;;;14.90;65.53;100943.73;108075;1262;74097;-84
2023/07/19 03:03:46;;;;;;;;;;;;;;;14.93;65.36;100941.47;108196;1263;125080;-83
2023/07/19 03:06:13;;;;;;;;;;;;;;;14.94;65.46;100934.59;108399;1262;73404;-84
2023/07/19 03:08:40;;;;;;;;;;;;;;;14.96;65.60;100934.97;108397;1262;59360;-84
2023/07/19 03:11:08;;;;;;;;;;;;;;;14.99;65.70;100931.09;108256;1262;125113;-83
2023/07/19 03:13:35;;;;;;;;;;;;;;;15.03;65.76;100931.33;108348;1262;73610;-83
2023/07/19 03:16:05;;;;;;;;;;;;;;;15.07;65.76;100929.59;108193;1262;126762;-83
2023/07/19 03:18:32;;;;;;;;;;;;;;;15.12;65.72;100931.06;108361;1264;72691;-83
2023/07/19 03:21:02;;;;;;;;;;;;;;;15.16;65.72;100930.55;108255;1264;125164;-83
2023/07/19 03:23:32;;;;;;;;;;;;;;;15.23;65.71;100929.91;108392;1262;60680;-83
2023/07/19 03:25:59;;;;;;;;;;;;;;;15.33;65.69;100928.42;108142;1263;73736;-83
2023/07/19 03:28:27;;;;;;;;;;;;;;;15.45;65.72;100924.44;108162;1266;126011;-83
2023/07/19 03:30:54;;;;;;;;;;;;;;;15.56;65.61;100924.52;108193;1264;71709;-83
2023/07/19 03:33:22;;;;;;;;;;;;;;;15.68;65.61;100925.66;107942;1263;126072;-83
2023/07/19 03:35:49;;;;;;;;;;;;;;;15.83;65.39;100924.02;108311;1263;59447;-83
2023/07/19 03:38:17;;;;;;;;;;;;;;;16.00;65.39;100925.20;108369;1263;74582;-84
2023/07/19 03:40:44;;;;;;;;;;;;;;;16.25;65.22;100926.55;108254;1262;128450;-83
2023/07/19 03:43:11;;;;;;;;;;;;;;;16.52;65.09;100929.85;108386;1264;73202;-84
2023/07/19 03:45:43;;;;;;;;;;;;;;;16.79;64.70;100929.05;108217;1264;128372;-83
2023/07/19 03:48:11;;;;;;;;;;;;;;;17.05;64.42;100926.29;108309;1262;60192;-84
2023/07/19 03:50:38;;;;;;;;;;;;;;;17.24;64.01;100923.11;108450;1262;72605;-84
2023/07/19 03:53:05;;;;;;;;;;;;;;;17.46;63.70;100920.27;108093;1262;124816;-83
2023/07/19 03:55:32;;;;;;;;;;;;;;;17.62;63.13;100922.73;108198;1264;71931;-83
2023/07/19 03:57:59;;;;;;;;;;;;;;;17.75;62.85;100921.12;108235;1263;125606;-84
2023/07/19 04:00:30;;;;;;;;;;;;;;;18.13;63.12;100919.09;108485;1263;60390;-84
2023/07/19 04:02:58;;;;;;;;;;;;;;;18.48;62.12;100917.88;108245;1262;124937;-84
2023/07/19 04:05:25;;;;;;;;;;;;;;;18.49;61.46;100923.02;108456;1262;65798;-85
2023/07/19 04:07:52;;;;;;;;;;;;;;;18.39;61.05;100929.65;108178;1264;71793;-86
2023/07/19 04:10:19;;;;;;;;;;;;;;;18.28;60.92;100926.14;108157;1263;126108;-82
2023/07/19 04:12:46;;;;;;;;;;;;;;;18.15;60.79;100921.57;108296;1262;60501;-85
2023/07/19 04:15:14;;;;;;;;;;;;;;;18.05;60.79;100924.99;107996;1262;124882;-86
2023/07/19 04:17:43;;;;;;;;;;;;;;;17.97;60.78;100926.77;108224;1264;65891;-86
2023/07/19 04:20:19;;;;;;;;;;;;;;;17.89;60.88;100924.84;108086;1264;73685;-85
2023/07/19 04:22:47;;;;;;;;;;;;;;;17.80;60.87;100928.02;108347;1263;123272;-85
2023/07/19 04:25:14;;;;;;;;;;;;;;;17.72;60.97;100928.76;108309;1264;59453;-85
2023/07/19 04:27:43;;;;;;;;;;;;;;;17.61;61.04;100930.19;108211;1262;124377;-85
2023/07/19 04:30:16;;;;;;;;;;;;;;;17.51;61.19;100930.91;108179;1264;67515;-83
2023/07/19 04:32:43;;;;;;;;;;;;;;;17.45;61.41;100930.38;108213;1264;74546;-88
2023/07/19 04:35:10;;;;;;;;;;;;;;;17.40;61.48;100930.55;108152;1264;124262;-88
2023/07/19 04:37:39;;;;;;;;;;;;;;;17.35;61.62;100933.58;108379;1262;61549;-88
2023/07/19 04:40:08;;;;;;;;;;;;;;;17.31;61.60;100929.31;108188;1262;124430;-88
2023/07/19 04:42:35;;;;;;;;;;;;;;;17.28;61.76;100932.85;108292;1267;67111;-88
2023/07/19 04:45:04;;;;;;;;;;;;;;;17.28;61.87;100925.59;108274;1262;125550;-89
2023/07/19 04:47:31;;;;;;;;;;;;;;;17.29;61.89;100922.93;108314;1264;60313;-88
2023/07/19 04:50:07;;;;;;;;;;;;;;;17.34;61.92;100920.45;108329;1264;60342;-85
2023/07/19 04:52:36;;;;;;;;;;;;;;;17.41;61.97;100917.24;108287;1263;125114;-85
2023/07/19 04:55:09;;;;;;;;;;;;;;;17.51;61.83;100916.70;108326;1263;65696;-84
2023/07/19 04:57:44;;;;;;;;;;;;;;;17.66;61.81;100920.06;108403;1262;124781;-84
2023/07/19 05:00:14;;;;;;;;;;;;;;;17.83;61.53;100917.55;108328;1264;59461;-84
2023/07/19 05:02:41;;;;;;;;;;;;;;;18.02;61.40;100915.41;108416;1264;61370;-84
2023/07/19 05:05:12;;;;;;;;;;;;;;;18.18;60.99;100916.77;108299;1262;124776;-84
2023/07/19 05:07:39;;;;;;;;;;;;;;;18.36;60.73;100916.88;108417;1262;67173;-84
2023/07/19 05:10:06;;;;;;;;;;;;;;;18.56;60.42;100911.98;108360;1261;125323;-85
2023/07/19 05:12:33;;;;;;;;;;;;;;;18.74;60.06;100911.16;108506;1260;59499;-85
2023/07/19 05:15:00;;;;;;;;;;;;;;;18.89;59.75;100910.75;108347;1262;124989;-87
2023/07/19 05:17:27;;;;;;;;;;;;;;;18.99;59.40;100908.18;108479;1262;74697;-87
2023/07/19 05:19:54;;;;;;;;;;;;;;;19.03;59.00;100911.71;108385;1261;65774;-87
2023/07/19 05:22:21;;;;;;;;;;;;;;;19.03;58.65;100908.34;108503;1262;124737;-87
2023/07/19 05:24:48;;;;;;;;;;;;;;;19.03;58.51;100911.01;108312;1262;59044;-87
2023/07/19 05:27:17;;;;;;;;;;;;;;;19.06;58.33;100912.78;108381;1261;125409;-87
2023/07/19 05:29:44;;;;;;;;;;;;;;;19.08;58.10;100908.13;108468;1260;75002;-87
2023/07/19 05:32:12;;;;;;;;;;;;;;;19.07;58.06;100902.80;108531;1262;66990;-87
2023/07/19 05:34:39;;;;;;;;;;;;;;;19.11;57.84;100904.91;108278;1262;124423;-87
2023/07/19 05:37:06;;;;;;;;;;;;;;;19.17;57.74;100903.43;108544;1267;59457;-87
2023/07/19 05:39:36;;;;;;;;;;;;;;;19.30;57.74;100901.72;108261;1262;124606;-87
2023/07/19 05:42:03;;;;;;;;;;;;;;;19.42;57.52;100898.23;108291;1264;72597;-87
2023/07/19 05:44:30;;;;;;;;;;;;;;;19.52;57.35;100903.13;108602;1262;66931;-87
2023/07/19 05:46:57;;;;;;;;;;;;;;;19.63;57.07;100902.84;108338;1262;126640;-87
2023/07/19 05:49:26;;;;;;;;;;;;;;;19.73;56.89;100901.52;108441;1262;59117;-87
2023/07/19 05:51:53;;;;;;;;;;;;;;;19.79;56.66;100898.61;108138;1262;126837;-87
2023/07/19 05:54:21;;;;;;;;;;;;;;;19.86;56.57;100902.46;108323;1260;75452;-87
2023/07/19 05:56:48;;;;;;;;;;;;;;;19.94;56.62;100902.37;108567;1260;65663;-87
2023/07/19 05:59:18;;;;;;;;;;;;;;;20.06;56.51;100899.04;108432;1261;124500;-87
2023/07/19 06:01:48;;;;;;;;;;;;;;;20.21;56.37;100901.69;108469;1262;59885;-87
2023/07/19 06:04:15;;;;;;;;;;;;;;;20.42;56.27;100896.08;108282;1262;124911;-88
2023/07/19 06:06:42;;;;;;;;;;;;;;;20.70;56.13;100894.11;108538;1262;73508;-87
2023/07/19 06:09:10;;;;;;;;;;;;;;;21.00;55.84;100894.38;108381;1263;124941;-87
2023/07/19 06:11:37;;;;;;;;;;;;;;;21.27;55.40;100889.30;108380;1262;72522;-87
2023/07/19 06:14:04;;;;;;;;;;;;;;;21.45;54.84;100890.98;108385;1265;59584;-87
2023/07/19 06:16:31;;;;;;;;;;;;;;;21.58;54.72;100890.59;108287;1263;125478;-87
2023/07/19 06:18:58;;;;;;;;;;;;;;;21.72;54.40;100886.20;108367;1262;74645;-87
2023/07/19 06:21:25;;;;;;;;;;;;;;;21.84;54.05;100884.73;108419;1262;125265;-87
2023/07/19 06:23:52;;;;;;;;;;;;;;;21.91;53.81;100882.27;108358;1262;72752;-87
2023/07/19 06:26:19;;;;;;;;;;;;;;;21.92;53.56;100884.02;108405;1262;59414;-87
2023/07/19 06:28:46;;;;;;;;;;;;;;;21.96;53.54;100882.89;108449;1262;126062;-88
2023/07/19 06:31:13;;;;;;;;;;;;;;;21.97;53.51;100885.37;108266;1263;74693;-87
2023/07/19 06:33:40;;;;;;;;;;;;;;;21.93;53.32;100884.38;108267;1262;124680;-87
2023/07/19 06:36:07;;;;;;;;;;;;;;;21.81;53.26;100886.94;108354;1264;70337;-87
2023/07/19 06:38:37;;;;;;;;;;;;;;;21.63;53.13;100885.65;108510;1263;60194;-87
2023/07/19 06:41:04;;;;;;;;;;;;;;;21.47;53.26;100885.41;108311;1262;126321;-87
2023/07/19 06:43:31;;;;;;;;;;;;;;;21.31;53.28;100885.12;108396;1267;75037;-87
2023/07/19 06:45:58;;;;;;;;;;;;;;;21.19;53.46;100879.98;108276;1262;125680;-86
2023/07/19 06:48:25;;;;;;;;;;;;;;;21.06;53.58;100879.48;108345;1262;73319;-86
2023/07/19 06:50:52;;;;;;;;;;;;;;;20.95;53.78;100877.51;108517;1263;59451;-87
2023/07/19 06:53:22;;;;;;;;;;;;;;;20.87;53.91;100877.10;108329;1263;124551;-87
2023/07/19 06:55:51;;;;;;;;;;;;;;;20.81;54.08;100874.70;108292;1267;75901;-87
2023/07/19 06:58:18;;;;;;;;;;;;;;;20.79;54.18;100873.30;108157;1262;125784;-87
2023/07/19 07:00:45;;;;;;;;;;;;;;;20.76;54.18;100879.04;108386;1263;72229;-87
2023/07/19 07:03:12;;;;;;;;;;;;;;;20.75;54.39;100876.73;108299;1262;125177;-87
2023/07/19 07:05:44;;;;;;;;;;;;;;;20.76;54.46;100873.34;108381;1262;62566;-87
2023/07/19 07:08:13;;;;;;;;;;;;;;;20.80;54.55;100873.81;108400;1261;73499;-88
2023/07/19 07:10:43;;;;;;;;;;;;;;;20.81;54.57;100872.02;108269;1262;125035;-87
2023/07/19 07:13:12;;;;;;;;;;;;;;;20.85;54.68;100876.25;108580;1261;73690;-87
2023/07/19 07:15:39;;;;;;;;;;;;;;;20.89;54.89;100870.48;108446;1261;125198;-87
2023/07/19 07:18:08;;;;;;;;;;;;;;;20.91;54.82;100872.38;108367;1264;60250;-87
2023/07/19 07:20:35;;;;;;;;;;;;;;;20.87;54.81;100875.49;108547;1262;74547;-87
2023/07/19 07:23:02;;;;;;;;;;;;;;;20.83;54.62;100872.90;108431;1262;125237;-87
2023/07/19 07:25:30;;;;;;;;;;;;;;;20.76;54.50;100872.27;108314;1264;72802;-87
2023/07/19 07:27:59;;;;;;;;;;;;;;;20.70;54.56;100873.08;108273;1260;124377;-87
2023/07/19 07:33:34;;;;;;;;;;;;;;;20.51;54.79;100871.01;108334;1261;124955;-87
2023/07/19 07:36:04;;;;;;;;;;;;;;;20.43;54.94;100873.80;108410;1262;66914;-87
2023/07/19 07:38:31;;;;;;;;;;;;;;;20.35;55.06;100873.17;108292;1260;74218;-87
2023/07/19 07:41:11;;;;;;;;;;;;;;;20.28;55.12;100874.35;108262;1262;124685;-87
2023/07/19 07:43:38;;;;;;;;;;;;;;;20.20;55.25;100873.19;108373;1262;59958;-87
2023/07/19 07:46:05;;;;;;;;;;;;;;;20.13;55.46;100868.48;108229;1260;124226;-87
2023/07/19 07:48:32;;;;;;;;;;;;;;;20.08;55.61;100869.42;108453;1261;66078;-87
2023/07/19 07:50:59;;;;;;;;;;;;;;;20.05;55.79;100867.69;108276;1262;73355;-87
2023/07/19 07:53:27;;;;;;;;;;;;;;;20.02;55.82;100869.14;108334;1262;59226;-87
2023/07/19 07:55:54;;;;;;;;;;;;;;;19.97;55.93;100867.07;108471;1262;59620;-87
2023/07/19 07:58:21;;;;;;;;;;;;;;;19.95;56.06;100868.70;108359;1263;124524;-87
2023/07/19 08:00:48;;;;;;;;;;;;;;;19.92;56.03;100870.34;108376;1262;66286;-87
2023/07/19 08:03:15;;;;;;;;;;;;;;;19.91;55.94;100872.67;108264;1263;125480;-87
2023/07/19 08:05:42;;;;;;;;;;;;;;;19.90;56.00;100870.72;108334;1267;59977;-87
2023/07/19 08:08:09;;;;;;;;;;;;;;;19.88;56.11;100869.14;108420;1264;59431;-86
2023/07/19 08:10:37;;;;;;;;;;;;;;;19.86;56.28;100870.23;108324;1269;124814;-87
2023/07/19 08:13:04;;;;;;;;;;;;;;;19.85;56.33;100870.08;108366;1264;66541;-87
2023/07/19 08:15:31;;;;;;;;;;;;;;;19.84;56.45;100868.64;108308;1263;125159;-87
2023/07/19 08:18:00;;;;;;;;;;;;;;;19.85;56.57;100862.95;108468;1264;59589;-87
2023/07/19 08:20:27;;;;;;;;;;;;;;;19.84;56.54;100864.38;108364;1267;60738;-87
2023/07/19 08:22:54;;;;;;;;;;;;;;;19.84;56.47;100865.63;108327;1263;126511;-87
2023/07/19 08:25:21;;;;;;;;;;;;;;;19.83;56.60;100864.20;108281;1264;67092;-87
2023/07/19 08:27:48;;;;;;;;;;;;;;;19.86;56.72;100861.87;108290;1263;125580;-87
2023/07/19 08:30:31;;;;;;;;;;;;;;;;;;;;;
2023/07/19 08:33:12;;;;;;;;;;;;;;;19.94;56.64;100860.15;108252;1263;124459;-87
2023/07/19 08:35:39;;;;;;;;;;;;;;;19.99;56.50;100854.41;108420;1265;73405;-88
2023/07/19 08:38:07;;;;;;;;;;;;;;;20.04;56.50;100853.98;108154;1264;68091;-88
2023/07/19 08:40:36;;;;;;;;;;;;;;;20.09;56.39;100853.40;108205;1265;124954;-87
2023/07/19 08:43:06;;;;;;;;;;;;;;;20.14;56.37;100855.64;108271;1264;59395;-87
2023/07/19 08:45:39;;;;;;;;;;;;;;;20.18;56.38;100857.02;108244;1263;125386;-88
2023/07/19 08:48:06;;;;;;;;;;;;;;;20.17;56.37;100852.04;108303;1264;73662;-87
2023/07/19 08:50:34;;;;;;;;;;;;;;;20.18;56.34;100856.48;108463;1265;67904;-87
2023/07/19 08:53:02;;;;;;;;;;;;;;;20.18;56.46;100854.35;108244;1263;125171;-87
2023/07/19 08:55:30;;;;;;;;;;;;;;;20.19;56.37;100855.21;108347;1263;59687;-87
2023/07/19 08:57:57;;;;;;;;;;;;;;;20.19;56.44;100852.18;108302;1263;125157;-87
2023/07/19 09:00:25;;;;;;;;;;;;;;;20.23;56.24;100850.91;108407;1264;73916;-87
2023/07/19 09:02:52;;;;;;;;;;;;;;;20.28;56.28;100850.65;108516;1262;67114;-87
2023/07/19 09:05:20;;;;;;;;;;;;;;;20.33;56.15;100848.80;108523;1260;124527;-87
2023/07/19 09:07:48;;;;;;;;;;;;;;;20.38;56.14;100847.30;108542;1261;59138;-88
2023/07/19 09:10:14;;;;;;;;;;;;;;;20.41;56.15;100846.91;108408;1262;126422;-88
2023/07/19 09:12:42;;;;;;;;;;;;;;;20.44;56.25;100849.53;108562;1267;73620;-88
2023/07/19 09:15:09;;;;;;;;;;;;;;;20.48;56.15;100848.95;108516;1267;124876;-88
2023/07/19 09:17:40;;;;;;;;;;;;;;;20.50;56.18;100850.15;108474;1262;71838;-88
2023/07/19 09:20:07;;;;;;;;;;;;;;;20.55;56.19;100853.83;108387;1262;59158;-88
2023/07/19 09:22:36;;;;;;;;;;;;;;;20.63;56.12;100849.83;108318;1262;124961;-88
2023/07/19 09:25:03;;;;;;;;;;;;;;;20.69;56.06;100846.34;108314;1265;75261;-88
2023/07/19 09:27:31;;;;;;;;;;;;;;;20.77;56.14;100841.05;108248;1262;124816;-88
2023/07/19 09:30:03;;;;;;;;;;;;;;;20.87;55.97;100838.41;108560;1261;72725;-88
2023/07/19 09:32:37;;;;;;;;;;;;;;;20.95;55.58;100839.67;108381;1262;59487;-89
2023/07/19 09:35:04;;;;;;;;;;;;;;;21.03;55.30;100837.25;108515;1264;124922;-88
2023/07/19 09:37:31;;;;;;;;;;;;;;;21.10;54.94;100835.34;108490;1262;74722;-88
2023/07/19 09:39:59;;;;;;;;;;;;;;;21.21;54.80;100836.05;108498;1261;124724;-88
2023/07/19 09:42:26;;;;;;;;;;;;;;;21.40;54.61;100829.83;108412;1262;71214;-88
2023/07/19 09:44:53;;;;;;;;;;;;;;;21.64;54.46;100826.16;108609;1262;59373;-88
2023/07/19 09:47:20;;;;;;;;;;;;;;;21.93;54.36;100824.33;108484;1261;124331;-88
2023/07/19 09:49:47;;;;;;;;;;;;;;;22.22;53.84;100819.09;108497;1261;74883;-87
2023/07/19 09:52:17;;;;;;;;;;;;;;;22.48;53.56;100818.14;108439;1262;124431;-88
2023/07/19 09:54:44;;;;;;;;;;;;;;;22.73;52.97;100820.07;108573;1262;71411;-87
2023/07/19 09:57:11;;;;;;;;;;;;;;;22.85;52.11;100821.21;108221;1264;125113;-88
2023/07/19 09:59:44;;;;;;;;;;;;;;;22.84;51.74;100822.49;108398;1262;60149;-88
2023/07/19 10:02:12;;;;;;;;;;;;;;;22.82;51.30;100821.30;108396;1262;74151;-88
2023/07/19 10:04:39;;;;;;;;;;;;;;;22.74;51.23;100813.25;108164;1262;124777;-88
2023/07/19 10:07:19;;;;;;;;;;;;;;;22.72;51.04;100814.02;108295;1265;71987;-87
2023/07/19 10:09:47;;;;;;;;;;;;;;;22.71;51.12;100812.08;108236;1263;125025;-87
2023/07/19 10:12:17;;;;;;;;;;;;;;;22.73;50.98;100805.77;108337;1265;59910;-87
2023/07/19 10:14:54;;;;;;;;;;;;;;;22.78;50.83;100803.69;108416;1269;74467;-87
2023/07/19 10:17:21;;;;;;;;;;;;;;;22.78;50.71;100801.35;108372;1264;124069;-87
2023/07/19 10:20:06;;;;;;;;;;;;;;;22.75;50.65;100799.65;108430;1265;73823;-87
2023/07/19 10:22:46;;;;;;;;;;;;;;;22.78;50.69;100797.95;108370;1262;126925;-87
2023/07/19 10:25:14;;;;;;;;;;;;;;;22.78;50.53;100794.92;108165;1264;61035;-87
2023/07/19 10:27:41;;;;;;;;;;;;;;;22.71;50.61;100796.67;108230;1262;125476;-88
2023/07/19 10:30:08;;;;;;;;;;;;;;;22.65;50.62;100791.11;108532;1262;66679;-88
2023/07/19 10:32:36;;;;;;;;;;;;;;;22.59;50.66;100789.65;108603;1264;72787;-87
2023/07/19 10:35:03;;;;;;;;;;;;;;;22.51;50.40;100789.67;108385;1264;125122;-87
2023/07/19 10:37:30;;;;;;;;;;;;;;;22.39;50.35;100789.06;108475;1265;59929;-86
2023/07/19 10:39:57;;;;;;;;;;;;;;;22.27;50.48;100789.85;108354;1264;124825;-87
2023/07/19 10:42:25;;;;;;;;;;;;;;;22.20;50.66;100787.13;108464;1262;67055;-87
2023/07/19 10:44:52;;;;;;;;;;;;;;;22.12;50.73;100787.47;108299;1265;72461;-88
2023/07/19 10:47:19;;;;;;;;;;;;;;;22.05;50.79;100789.95;108213;1262;124928;-87
2023/07/19 10:49:46;;;;;;;;;;;;;;;21.95;50.95;100793.73;108049;1263;412512;-87
2023/07/19 10:52:32;;;;;;;;;;;;;;;21.84;51.30;100793.98;108232;1267;125823;-88
2023/07/19 10:54:59;;;;;;;;;;;;;;;21.68;51.63;100797.88;108402;1262;66191;-87
2023/07/19 10:57:27;;;;;;;;;;;;;;;21.57;52.11;100800.08;108365;1263;126175;-87
2023/07/19 10:59:54;;;;;;;;;;;;;;;21.46;52.34;100797.95;108383;1262;59140;-87
2023/07/19 11:02:21;;;;;;;;;;;;;;;21.28;52.41;100799.49;108381;1262;60150;-87
2023/07/19 11:04:48;;;;;;;;;;;;;;;21.14;52.65;100803.68;108395;1264;123770;-87
2023/07/19 11:07:22;;;;;;;;;;;;;;;20.99;52.81;100807.34;108417;1262;64610;-87
2023/07/19 11:09:50;;;;;;;;;;;;;;;20.86;53.08;100809.52;108277;1262;123746;-87
2023/07/19 11:12:20;;;;;;;;;;;;;;;20.73;53.25;100811.86;108582;1262;59578;-88
2023/07/19 11:15:27;;;;;;;;;;;;;;;20.63;53.71;100810.95;108679;1262;60324;-88
2023/07/19 11:17:57;;;;;;;;;;;;;;;20.58;54.07;100801.73;107897;1271;76024;-88
2023/07/19 11:20:27;;;;;;;;;;;;;;;20.63;54.38;100800.98;108401;1262;66307;-88
2023/07/19 11:23:02;;;;;;;;;;;;;;;20.71;54.69;100796.21;108277;1265;124557;-87
2023/07/19 11:25:29;;;;;;;;;;;;;;;20.80;54.89;100794.82;108366;1265;59657;-87
2023/07/19 11:27:58;;;;;;;;;;;;;;;20.93;54.99;100795.33;108348;1262;124424;-87
2023/07/19 11:30:35;;;;;;;;;;;;;;;21.04;54.89;100787.27;108401;1262;73377;-88
2023/07/19 11:33:03;;;;;;;;;;;;;;;21.11;54.88;100789.82;108523;1266;67170;-87
2023/07/19 11:35:32;;;;;;;;;;;;;;;21.14;54.83;100792.28;108222;1262;124691;-87
2023/07/19 11:37:59;;;;;;;;;;;;;;;21.10;54.67;100795.19;108429;1262;58998;-87
2023/07/19 11:40:26;;;;;;;;;;;;;;;21.03;54.67;100798.35;108528;1264;124685;-88
2023/07/19 11:42:57;;;;;;;;;;;;;;;21.01;54.73;100799.98;108456;1264;75245;-87
2023/07/19 11:45:25;;;;;;;;;;;;;;;20.98;54.78;100804.31;108400;1262;125373;-88
2023/07/19 11:47:57;;;;;;;;;;;;;;;20.88;54.59;100804.48;108457;1269;71394;-88
2023/07/19 11:50:24;;;;;;;;;;;;;;;20.80;54.68;100804.27;108596;1265;59842;-88
2023/07/19 11:52:55;;;;;;;;;;;;;;;20.73;54.62;100801.35;108322;1264;125864;-87
2023/07/19 11:55:25;;;;;;;;;;;;;;;20.64;54.57;100800.77;108367;1262;74572;-88
2023/07/19 11:57:52;;;;;;;;;;;;;;;20.54;54.65;100798.42;108251;1267;125326;-88
2023/07/19 12:00:20;;;;;;;;;;;;;;;20.52;54.87;100808.60;108494;1266;73697;-88
2023/07/19 12:02:47;;;;;;;;;;;;;;;20.52;54.87;100806.64;108250;1265;59355;-88
2023/07/19 12:05:18;;;;;;;;;;;;;;;20.52;54.97;100805.91;108259;1262;124353;-88
2023/07/19 12:07:45;;;;;;;;;;;;;;;20.57;55.11;100805.84;108478;1262;73727;-88
2023/07/19 12:10:32;;;;;;;;;;;;;;;20.63;55.19;100805.60;108230;1262;125182;-89
2023/07/19 12:12:59;;;;;;;;;;;;;;;20.68;55.06;100805.54;108352;1262;73895;-86
2023/07/19 12:15:26;;;;;;;;;;;;;;;20.72;55.12;100803.32;108282;1262;124514;-86
2023/07/19 12:17:54;;;;;;;;;;;;;;;20.81;55.04;100804.42;108616;1262;60176;-87
2023/07/19 12:20:26;;;;;;;;;;;;;;;20.91;54.92;100807.84;108466;1264;73438;-87
2023/07/19 12:22:56;;;;;;;;;;;;;;;20.98;54.53;100808.60;108355;1262;124269;-87
2023/07/19 12:25:24;;;;;;;;;;;;;;;21.02;53.70;100809.61;108602;1262;72393;-87
2023/07/19 12:27:52;;;;;;;;;;;;;;;21.12;53.51;100803.73;108335;1265;124492;-87
2023/07/19 12:30:39;;;;;;;;;;;;;;;21.40;53.17;100801.42;107909;1270;60052;-87
2023/07/19 12:33:09;;;;;;;;;;;;;;;21.59;52.33;100803.23;108302;1262;74736;-87